Time;durP1;ratioP1;P1;durP2;ratioP2;P2;SDS_P1;SDS_P2;PMS_P1;PMS_P2;Temp;Humidity;BMP_temperature;BMP_pressure;BME280_temperature;BME280_humidity;BME280_pressure;Samples;Min_cycle;Max_cycle;Signal;HPM_P1;HPM_P2
2022/01/29 00:01:42;;;;;;;11.73;8.53;;;;;;;0.32;100.00;98522.59;4948614;28;20214;-52
2022/01/29 00:04:11;;;;;;;10.07;8.23;;;;;;;0.38;100.00;98527.50;4950100;28;20230;-51
2022/01/29 00:06:39;;;;;;;12.57;8.73;;;;;;;0.32;100.00;98513.94;4934100;28;20211;-48
2022/01/29 00:09:13;;;;;;;10.47;9.33;;;;;;;0.28;100.00;98511.50;4951870;28;20206;-53
2022/01/29 00:11:41;;;;;;;11.50;10.33;;;;;;;0.31;100.00;98504.44;4906318;28;20688;-49
2022/01/29 00:14:09;;;;;;;17.63;10.20;;;;;;;0.25;100.00;98506.47;4952623;28;20233;-56
2022/01/29 00:16:38;;;;;;;10.57;9.00;;;;;;;0.30;100.00;98500.97;4953882;28;20293;-51
2022/01/29 00:19:06;;;;;;;9.93;8.53;;;;;;;0.29;100.00;98499.31;4952714;28;20331;-51
2022/01/29 00:21:34;;;;;;;11.40;9.67;;;;;;;0.31;100.00;98500.06;4937667;28;20219;-52
2022/01/29 00:24:02;;;;;;;10.87;9.20;;;;;;;0.40;100.00;98506.53;4951759;28;20244;-54
2022/01/29 00:26:31;;;;;;;15.20;9.80;;;;;;;0.39;100.00;98494.41;4911439;28;20494;-51
2022/01/29 00:29:04;;;;;;;11.70;9.73;;;;;;;0.41;100.00;98498.63;4949252;28;20790;-56
2022/01/29 00:31:32;;;;;;;11.20;10.10;;;;;;;0.37;100.00;98501.50;4953214;28;20586;-53
2022/01/29 00:34:02;;;;;;;15.50;12.30;;;;;;;0.45;100.00;98486.22;4952808;28;20425;-51
2022/01/29 00:36:30;;;;;;;14.93;10.37;;;;;;;0.18;100.00;98473.84;4937296;28;20211;-52
2022/01/29 00:38:58;;;;;;;12.33;10.13;;;;;;;0.28;100.00;98485.44;4947884;28;20234;-53
2022/01/29 00:41:26;;;;;;;11.97;9.13;;;;;;;0.28;100.00;98485.44;4953124;28;20325;-53
2022/01/29 00:43:58;;;;;;;10.93;9.67;;;;;;;0.35;100.00;98479.88;4917823;28;20801;-52
2022/01/29 00:46:27;;;;;;;11.80;9.20;;;;;;;0.33;100.00;98471.31;4910513;28;20230;-52
2022/01/29 00:48:55;;;;;;;11.53;8.93;;;;;;;0.35;100.00;98466.84;4934952;28;20499;-53
2022/01/29 00:51:23;;;;;;;18.40;13.40;;;;;;;0.28;100.00;98464.59;4947686;28;20304;-52
2022/01/29 00:53:51;;;;;;;16.10;11.57;;;;;;;0.41;100.00;98448.22;4939360;28;20230;-56
2022/01/29 00:56:19;;;;;;;12.23;8.83;;;;;;;0.28;100.00;98440.25;4948770;28;20206;-53
2022/01/29 00:58:46;;;;;;;11.37;9.17;;;;;;;0.34;100.00;98439.09;4952139;28;20234;-55
2022/01/29 01:01:16;;;;;;;11.10;9.13;;;;;;;0.28;100.00;98430.69;4940210;28;20206;-53
2022/01/29 01:03:44;;;;;;;12.60;9.90;;;;;;;0.35;100.00;98428.56;4899009;28;20230;-53
2022/01/29 01:06:12;;;;;;;11.80;9.07;;;;;;;0.26;100.00;98429.94;4948362;28;20948;-56
2022/01/29 01:08:40;;;;;;;9.80;8.37;;;;;;;0.30;100.00;98421.94;4935325;28;20699;-53
2022/01/29 01:11:08;;;;;;;14.57;9.13;;;;;;;0.36;100.00;98413.75;4949143;28;20683;-55
2022/01/29 01:13:36;;;;;;;13.93;9.67;;;;;;;0.38;100.00;98420.59;4951945;28;20227;-49
2022/01/29 01:16:05;;;;;;;15.23;9.93;;;;;;;0.37;100.00;98418.03;4945160;28;20207;-51
2022/01/29 01:18:35;;;;;;;10.30;8.90;;;;;;;0.35;100.00;98427.72;4908952;28;20606;-50
2022/01/29 01:21:03;;;;;;;11.20;9.07;;;;;;;0.23;100.00;98421.44;4948800;28;20206;-49
2022/01/29 01:23:31;;;;;;;8.63;7.73;;;;;;;0.45;100.00;98422.81;4946887;28;20361;-57
2022/01/29 01:26:01;;;;;;;9.77;7.90;;;;;;;0.36;100.00;98421.59;4903148;28;20222;-54
2022/01/29 01:28:30;;;;;;;9.47;8.33;;;;;;;0.32;100.00;98420.91;4949395;28;20286;-48
2022/01/29 01:30:58;;;;;;;9.23;8.33;;;;;;;0.30;100.00;98424.56;4951025;28;20302;-53
2022/01/29 01:33:26;;;;;;;12.93;7.93;;;;;;;0.36;100.00;98411.16;4948081;28;20281;-49
2022/01/29 01:36:00;;;;;;;13.73;8.80;;;;;;;0.13;100.00;98392.47;4901498;28;20687;-49
2022/01/29 01:38:35;;;;;;;14.53;8.83;;;;;;;0.24;100.00;98410.09;4946471;28;20830;-50
2022/01/29 01:41:08;;;;;;;15.13;8.87;;;;;;;0.25;100.00;98407.41;4927325;28;20782;-56
2022/01/29 01:43:36;;;;;;;11.77;9.23;;;;;;;0.32;100.00;98397.44;4947581;28;20606;-55
2022/01/29 01:46:04;;;;;;;12.83;9.10;;;;;;;0.20;100.00;98404.22;4949947;28;20297;-57
2022/01/29 01:48:32;;;;;;;8.50;7.67;;;;;;;0.11;100.00;98403.00;4944531;28;20269;-48
2022/01/29 01:51:02;;;;;;;11.30;8.83;;;;;;;0.16;100.00;98402.69;4899870;28;20211;-49
2022/01/29 01:53:30;;;;;;;8.90;7.73;;;;;;;0.16;100.00;98394.88;4947996;28;20314;-54
2022/01/29 01:55:59;;;;;;;8.57;7.70;;;;;;;0.36;100.00;98390.28;4925524;28;20215;-56
2022/01/29 01:58:27;;;;;;;12.40;8.90;;;;;;;0.18;100.00;98398.25;4944588;28;20203;-53
2022/01/29 02:00:55;;;;;;;12.73;8.03;;;;;;;0.31;100.00;98400.16;4952264;28;20231;-49
2022/01/29 02:03:23;;;;;;;8.70;7.80;;;;;;;0.25;100.00;98391.78;4944617;28;20237;-56
2022/01/29 02:05:53;;;;;;;8.77;7.70;;;;;;;0.31;100.00;98394.94;4906116;28;20821;-54
2022/01/29 02:08:23;;;;;;;12.30;8.30;;;;;;;0.24;100.00;98384.88;4943226;28;20309;-51
2022/01/29 02:10:51;;;;;;;9.40;8.07;;;;;;;0.24;100.00;98387.47;4947975;28;20622;-50
2022/01/29 02:13:19;;;;;;;9.90;8.73;;;;;;;0.29;100.00;98376.78;4929784;28;20873;-51
2022/01/29 02:15:48;;;;;;;11.43;8.57;;;;;;;0.13;100.00;98379.41;4944880;28;20491;-53
2022/01/29 02:18:16;;;;;;;9.43;8.47;;;;;;;0.05;100.00;98374.66;4943826;28;20613;-51
2022/01/29 02:20:45;;;;;;;8.83;7.60;;;;;;;0.16;100.00;98373.22;4900085;28;20978;-56
2022/01/29 02:23:14;;;;;;;11.47;9.00;;;;;;;0.05;100.00;98359.03;4947473;28;20257;-56
2022/01/29 02:25:45;;;;;;;9.27;7.57;;;;;;;0.23;100.00;98370.16;4945879;28;20672;-50
2022/01/29 02:28:14;;;;;;;13.53;9.27;;;;;;;0.21;100.00;98371.16;4926835;28;20302;-55
2022/01/29 02:30:45;;;;;;;9.67;8.70;;;;;;;0.25;100.00;98365.69;4944002;28;20607;-49
2022/01/29 02:33:16;;;;;;;9.37;6.87;;;;;;;0.12;100.00;98364.72;4941624;28;20525;-54
2022/01/29 02:35:47;;;;;;;11.30;8.87;;;;;;;0.11;100.00;98363.88;4947026;28;20459;-55
2022/01/29 02:38:18;;;;;;;8.30;7.63;;;;;;;0.12;100.00;98357.75;4889362;28;20227;-51
2022/01/29 02:40:49;;;;;;;9.77;8.07;;;;;;;0.26;100.00;98361.31;4947362;28;20562;-54
2022/01/29 02:43:19;;;;;;;8.70;6.83;;;;;;;0.17;100.00;98360.06;4930773;28;20234;-51
2022/01/29 02:45:48;;;;;;;10.57;8.27;;;;;;;0.11;100.00;98358.69;4946423;28;20206;-49
2022/01/29 02:48:16;;;;;;;10.13;9.13;;;;;;;-0.09;100.00;98343.34;4940919;28;20257;-53
2022/01/29 02:50:44;;;;;;;9.33;8.10;;;;;;;-0.26;100.00;98344.28;4946065;28;20414;-55
2022/01/29 02:53:13;;;;;;;9.30;8.23;;;;;;;-0.35;100.00;98343.91;4898828;28;20239;-52
2022/01/29 02:55:42;;;;;;;9.87;7.97;;;;;;;-0.59;100.00;98331.31;4892595;28;20249;-51
2022/01/29 02:58:10;;;;;;;13.93;8.50;;;;;;;-0.66;100.00;98335.19;4946321;28;20280;-56
2022/01/29 03:00:39;;;;;;;10.17;9.07;;;;;;;-0.71;100.00;98321.59;4947232;28;20362;-50
2022/01/29 03:03:07;;;;;;;9.67;8.27;;;;;;;-0.75;100.00;98320.09;4942439;28;20782;-54
2022/01/29 03:05:36;;;;;;;10.23;8.27;;;;;;;-0.92;100.00;98315.81;4948107;28;20749;-55
2022/01/29 03:08:04;;;;;;;9.63;7.47;;;;;;;-1.01;100.00;98309.31;4926361;28;20445;-53
2022/01/29 03:10:32;;;;;;;10.63;8.77;;;;;;;-1.19;100.00;98288.59;4902604;28;20210;-51
2022/01/29 03:13:02;;;;;;;10.70;9.60;;;;;;;-0.95;100.00;98297.75;4925839;28;20317;-51
2022/01/29 03:15:30;;;;;;;9.03;8.20;;;;;;;-0.75;100.00;98301.88;4943619;28;20281;-51
2022/01/29 03:17:59;;;;;;;10.03;8.17;;;;;;;-0.78;100.00;98289.03;4948141;28;20199;-53
2022/01/29 03:20:30;;;;;;;12.53;10.13;;;;;;;-0.71;100.00;98292.97;4949225;28;20872;-54
2022/01/29 03:22:58;;;;;;;11.07;9.77;;;;;;;-0.80;100.00;98290.88;4942255;28;20437;-48
2022/01/29 03:25:27;;;;;;;12.80;9.80;;;;;;;-0.71;100.00;98285.16;4902262;28;20616;-52
2022/01/29 03:27:55;;;;;;;9.90;8.90;;;;;;;-0.77;100.00;98281.13;4918071;28;20430;-56
2022/01/29 03:30:24;;;;;;;12.07;8.77;;;;;;;-0.76;100.00;98281.97;4940437;28;20562;-53
2022/01/29 03:32:52;;;;;;;12.87;9.30;;;;;;;-0.71;100.00;98277.34;4948046;28;20266;-53
2022/01/29 03:35:21;;;;;;;10.60;9.23;;;;;;;-0.63;100.00;98275.16;4944965;28;20206;-49
2022/01/29 03:37:49;;;;;;;13.17;9.53;;;;;;;-0.45;100.00;98267.22;4947284;28;20568;-53
2022/01/29 03:40:17;;;;;;;14.50;9.90;;;;;;;-0.32;100.00;98267.38;4910365;28;20746;-50
2022/01/29 03:42:57;;;;;;;10.63;8.53;;;;;;;-0.35;100.00;98260.56;4931573;28;20217;-52
2022/01/29 03:45:26;;;;;;;11.37;9.53;;;;;;;-0.31;100.00;98249.03;4944175;28;20325;-48
2022/01/29 03:47:55;;;;;;;11.23;8.77;;;;;;;-0.29;100.00;98241.16;4950340;28;20289;-49
2022/01/29 03:50:23;;;;;;;10.57;8.97;;;;;;;-0.30;100.00;98240.28;4945466;28;20234;-52
2022/01/29 03:52:51;;;;;;;10.07;9.00;;;;;;;-0.11;100.00;98251.41;4944867;28;20324;-51
2022/01/29 03:55:19;;;;;;;11.43;8.73;;;;;;;-0.17;100.00;98244.81;4909564;28;20785;-50
2022/01/29 03:57:47;;;;;;;11.03;8.47;;;;;;;-0.05;100.00;98254.50;4922457;28;20212;-50
2022/01/29 04:00:16;;;;;;;11.27;9.17;;;;;;;-0.08;100.00;98238.19;4944257;28;20525;-52
2022/01/29 04:02:45;;;;;;;12.53;9.73;;;;;;;-0.02;100.00;98238.69;4944877;28;20583;-52
2022/01/29 04:05:14;;;;;;;10.87;9.33;;;;;;;-0.08;100.00;98238.19;4946407;28;20199;-56
2022/01/29 04:07:42;;;;;;;13.50;9.20;;;;;;;-0.12;100.00;98232.34;4950896;28;20238;-52
2022/01/29 04:10:12;;;;;;;10.03;8.63;;;;;;;-0.14;100.00;98244.63;4941175;28;20325;-49
2022/01/29 04:12:44;;;;;;;12.50;9.57;;;;;;;-0.17;100.00;98237.00;4889892;28;20714;-54
2022/01/29 04:15:12;;;;;;;14.43;9.90;;;;;;;-0.22;100.00;98226.81;4939208;28;20221;-57
2022/01/29 04:17:40;;;;;;;13.10;9.50;;;;;;;-0.24;100.00;98230.44;4945004;28;20299;-54
2022/01/29 04:20:11;;;;;;;10.20;9.13;;;;;;;-0.20;100.00;98224.13;4942320;28;20210;-53
2022/01/29 04:22:39;;;;;;;10.77;9.10;;;;;;;-0.18;100.00;98222.28;4944435;28;20294;-52
2022/01/29 04:25:08;;;;;;;14.37;9.57;;;;;;;-0.21;100.00;98215.47;4925150;28;20262;-49
2022/01/29 04:27:39;;;;;;;12.63;10.17;;;;;;;-0.25;100.00;98200.13;4884101;28;20665;-52
2022/01/29 04:30:12;;;;;;;11.67;9.57;;;;;;;-0.37;100.00;98207.72;4922095;28;20300;-51
2022/01/29 04:32:59;;;;;;;10.87;9.63;;;;;;;-0.40;100.00;98204.44;4926017;28;20235;-52
2022/01/29 04:35:29;;;;;;;14.57;8.80;;;;;;;-0.49;100.00;98198.03;4925652;28;20755;-51
2022/01/29 04:37:57;;;;;;;10.07;9.03;;;;;;;-0.47;100.00;98197.00;4925344;28;20216;-54
2022/01/29 04:40:26;;;;;;;10.23;9.00;;;;;;;-0.42;100.00;98182.88;4928882;28;20297;-51
2022/01/29 04:42:54;;;;;;;14.40;12.07;;;;;;;-0.49;100.00;98192.81;4924650;28;20227;-55
2022/01/29 04:45:23;;;;;;;16.30;8.80;;;;;;;-0.61;100.00;98191.78;4890888;28;20223;-53
2022/01/29 04:47:51;;;;;;;10.63;9.07;;;;;;;-0.55;100.00;98193.19;4925747;28;20697;-53
2022/01/29 04:50:19;;;;;;;13.37;9.07;;;;;;;-0.45;100.00;98189.94;4927040;28;20227;-54
2022/01/29 04:52:48;;;;;;;11.70;9.30;;;;;;;-0.49;100.00;98191.03;4930456;28;20235;-51
2022/01/29 04:55:17;;;;;;;10.33;8.20;;;;;;;-0.61;100.00;98200.41;4929723;28;20659;-57
2022/01/29 04:57:46;;;;;;;12.07;8.87;;;;;;;-0.57;100.00;98184.59;4929273;28;20302;-51
2022/01/29 05:00:20;;;;;;;12.33;9.10;;;;;;;-0.58;100.00;98178.56;4885648;28;20347;-53
2022/01/29 05:02:48;;;;;;;11.17;9.00;;;;;;;-0.65;100.00;98169.44;4850770;28;20231;-52
2022/01/29 05:05:17;;;;;;;9.87;8.63;;;;;;;-0.60;100.00;98157.81;4928636;28;20306;-49
2022/01/29 05:07:45;;;;;;;11.13;9.13;;;;;;;-0.74;100.00;98158.66;4911930;28;20664;-51
2022/01/29 05:10:15;;;;;;;13.70;9.40;;;;;;;-0.73;100.00;98149.06;4901165;28;20302;-52
2022/01/29 05:12:49;;;;;;;11.50;9.13;;;;;;;-0.85;100.00;98148.00;4932776;28;20632;-53
2022/01/29 05:15:24;;;;;;;13.20;8.80;;;;;;;-0.83;100.00;98158.34;4917901;28;20897;-53
2022/01/29 05:28:57;;;;;;;9.90;8.90;;;;;;;-0.63;100.00;98160.59;4935643;28;20568;-52
2022/01/29 05:31:25;;;;;;;11.67;8.77;;;;;;;-0.64;100.00;98153.72;4933220;28;20461;-53
2022/01/29 05:33:53;;;;;;;10.40;9.23;;;;;;;-0.66;100.00;98152.16;4905029;28;20269;-49
2022/01/29 05:36:21;;;;;;;10.43;8.00;;;;;;;-0.70;100.00;98143.66;4945216;28;20827;-50
2022/01/29 05:38:50;;;;;;;12.53;8.40;;;;;;;-0.66;100.00;98141.75;4948762;28;20325;-53
2022/01/29 05:41:19;;;;;;;14.77;9.33;;;;;;;-0.63;100.00;98146.78;4934599;28;20505;-52
2022/01/29 05:43:47;;;;;;;11.20;8.93;;;;;;;-0.64;100.00;98132.91;4941410;28;20376;-57
2022/01/29 05:46:16;;;;;;;10.00;8.17;;;;;;;-0.62;100.00;98144.06;4938003;28;20250;-53
2022/01/29 05:48:45;;;;;;;11.90;9.23;;;;;;;-0.52;100.00;98140.94;4900101;28;20420;-52
2022/01/29 05:51:13;;;;;;;10.90;9.73;;;;;;;-0.46;100.00;98133.59;4935161;28;20242;-51
2022/01/29 05:53:41;;;;;;;10.77;8.80;;;;;;;-0.47;100.00;98134.50;4922261;28;20552;-51
2022/01/29 05:56:10;;;;;;;9.47;8.50;;;;;;;-0.27;100.00;98131.66;4892318;28;20219;-51
2022/01/29 05:58:39;;;;;;;9.10;8.00;;;;;;;-0.35;100.00;98126.91;4923691;28;20896;-50
2022/01/29 06:01:07;;;;;;;9.00;7.80;;;;;;;-0.36;100.00;98125.25;4929531;28;20641;-50
2022/01/29 06:03:36;;;;;;;12.93;7.93;;;;;;;-0.34;100.00;98124.22;4870624;28;21595;-49
2022/01/29 06:06:04;;;;;;;9.50;8.23;;;;;;;-0.32;100.00;98127.56;4913148;28;20501;-55
2022/01/29 06:08:32;;;;;;;10.17;8.87;;;;;;;-0.13;100.00;98125.59;4923048;28;20213;-53
2022/01/29 06:11:01;;;;;;;11.53;8.27;;;;;;;-0.32;100.00;98126.72;4913015;28;20703;-51
2022/01/29 06:13:29;;;;;;;9.97;8.50;;;;;;;-0.36;100.00;98139.09;4926368;28;20314;-49
2022/01/29 06:16:01;;;;;;;11.30;8.67;;;;;;;-0.46;100.00;98125.78;4930248;28;20294;-53
2022/01/29 06:18:29;;;;;;;10.63;8.27;;;;;;;-0.57;100.00;98122.97;4900718;28;20293;-51
2022/01/29 06:21:03;;;;;;;10.93;8.67;;;;;;;-0.67;100.00;98112.25;4895518;28;20501;-51
2022/01/29 06:23:34;;;;;;;9.43;8.37;;;;;;;-0.56;100.00;98113.41;4920763;28;20979;-54
2022/01/29 06:26:04;;;;;;;11.67;9.77;;;;;;;-0.65;100.00;98120.00;4915851;28;20207;-51
2022/01/29 06:28:33;;;;;;;11.90;9.63;;;;;;;-0.69;100.00;98118.50;4925938;28;20433;-53
2022/01/29 06:31:03;;;;;;;9.97;8.13;;;;;;;-0.66;100.00;98119.13;4926617;28;20225;-52
2022/01/29 06:33:31;;;;;;;9.87;8.80;;;;;;;-0.68;100.00;98122.78;4924729;28;20362;-53
2022/01/29 06:36:00;;;;;;;9.20;8.30;;;;;;;-0.54;100.00;98122.78;4888736;28;20215;-50
2022/01/29 06:38:28;;;;;;;9.60;8.57;;;;;;;-0.64;100.00;98113.84;4924101;28;20463;-51
2022/01/29 06:40:56;;;;;;;10.43;9.23;;;;;;;-0.44;100.00;98116.09;4909306;28;20541;-54
2022/01/29 06:43:26;;;;;;;10.20;9.07;;;;;;;-0.47;100.00;98107.66;4926699;28;20692;-51
2022/01/29 06:45:54;;;;;;;11.53;10.17;;;;;;;-0.30;100.00;98104.03;4926086;28;20683;-53
2022/01/29 06:48:24;;;;;;;12.80;9.67;;;;;;;-0.32;100.00;98083.28;4928195;28;20219;-52
2022/01/29 06:50:52;;;;;;;12.80;9.73;;;;;;;-0.36;100.00;98094.81;4888809;28;20798;-53
2022/01/29 06:53:20;;;;;;;10.57;9.37;;;;;;;-0.48;100.00;98090.34;4929384;28;20483;-53
2022/01/29 06:55:48;;;;;;;11.03;8.23;;;;;;;-0.34;100.00;98103.38;4923763;28;20245;-52
2022/01/29 06:58:17;;;;;;;9.97;8.50;;;;;;;-0.44;100.00;98110.06;4894448;28;20471;-54
2022/01/29 07:01:05;;;;;;;9.23;7.90;;;;;;;-0.44;100.00;98115.28;4925722;28;21022;-53
2022/01/29 07:03:35;;;;;;;12.57;8.87;;;;;;;-0.42;100.00;98115.16;4929017;28;20733;-55
2022/01/29 07:06:04;;;;;;;9.87;8.60;;;;;;;-0.34;100.00;98118.19;4891092;28;20353;-47
2022/01/29 07:08:37;;;;;;;11.20;8.90;;;;;;;-0.27;100.00;98122.09;4868559;28;20218;-56
2022/01/29 07:11:05;;;;;;;8.03;7.13;;;;;;;-0.32;100.00;98122.34;4927130;28;20681;-50
2022/01/29 07:13:34;;;;;;;11.03;8.17;;;;;;;-0.25;100.00;98109.81;4911951;28;20639;-56
2022/01/29 07:16:03;;;;;;;11.20;7.90;;;;;;;-0.26;100.00;98109.88;4928236;28;20259;-53
2022/01/29 07:18:31;;;;;;;8.93;7.90;;;;;;;-0.18;100.00;98102.47;4927434;28;20380;-53
2022/01/29 07:21:00;;;;;;;8.80;7.87;;;;;;;-0.13;100.00;98094.34;4927105;28;20304;-55
2022/01/29 07:23:34;;;;;;;8.93;8.00;;;;;;;-0.13;100.00;98103.00;4888420;28;20553;-47
2022/01/29 07:26:02;;;;;;;11.90;8.53;;;;;;;-0.17;100.00;98091.94;4915232;28;20322;-51
2022/01/29 07:28:32;;;;;;;13.10;10.13;;;;;;;-0.28;100.00;98088.31;4925432;28;20245;-53
2022/01/29 07:31:00;;;;;;;11.70;10.50;;;;;;;-0.11;100.00;98095.09;4913354;28;20215;-54
2022/01/29 07:33:29;;;;;;;13.90;12.47;;;;;;;-0.13;100.00;98096.94;4917009;28;20369;-48
2022/01/29 07:35:57;;;;;;;10.30;8.97;;;;;;;-0.03;100.00;98106.72;4916378;28;20301;-53
2022/01/29 07:38:27;;;;;;;10.07;7.97;;;;;;;-0.08;100.00;98106.16;4887901;28;22019;-58
2022/01/29 07:40:55;;;;;;;9.93;8.07;;;;;;;-0.07;100.00;98093.97;4918527;28;20301;-54
2022/01/29 07:43:23;;;;;;;9.37;8.40;;;;;;;-0.15;100.00;98094.47;4921519;28;20234;-55
2022/01/29 07:45:52;;;;;;;10.30;8.13;;;;;;;-0.23;100.00;98089.72;4913981;28;20632;-52
2022/01/29 07:48:20;;;;;;;11.67;8.17;;;;;;;-0.24;100.00;98087.19;4910890;28;20238;-52
2022/01/29 07:50:49;;;;;;;9.53;8.27;;;;;;;-0.11;100.00;98097.69;4916090;28;20649;-50
2022/01/29 07:53:17;;;;;;;9.33;8.20;;;;;;;-0.08;100.00;98089.69;4886329;28;21147;-55
2022/01/29 07:55:46;;;;;;;10.23;8.20;;;;;;;0.03;100.00;98091.63;4925105;28;20304;-55
2022/01/29 07:58:14;;;;;;;9.97;8.20;;;;;;;0.08;100.00;98097.41;4927352;28;20510;-51
2022/01/29 08:00:43;;;;;;;13.80;9.33;;;;;;;0.07;100.00;98095.72;4929693;28;20297;-56
2022/01/29 08:03:11;;;;;;;9.63;8.73;;;;;;;0.21;100.00;98087.03;4927420;28;20443;-50
2022/01/29 08:05:39;;;;;;;9.50;7.83;;;;;;;0.31;100.00;98088.13;4932185;28;20301;-57
2022/01/29 08:08:15;;;;;;;9.20;8.30;;;;;;;0.36;100.00;98075.63;4938857;28;20759;-52
2022/01/29 08:10:43;;;;;;;7.87;7.10;;;;;;;0.59;100.00;98080.34;4939398;28;20206;-54
2022/01/29 08:13:13;;;;;;;9.93;8.60;;;;;;;0.81;100.00;98072.78;4940393;28;20315;-51
2022/01/29 08:15:41;;;;;;;7.60;6.83;;;;;;;0.98;100.00;98061.22;4939060;28;20761;-55
2022/01/29 08:18:09;;;;;;;10.37;8.43;;;;;;;1.05;100.00;98045.16;4937164;28;20708;-54
2022/01/29 08:20:37;;;;;;;8.77;7.87;;;;;;;1.08;100.00;98051.03;4937140;28;20955;-50
2022/01/29 08:23:07;;;;;;;8.47;7.63;;;;;;;1.19;100.00;98049.47;4939928;28;20611;-55
2022/01/29 08:25:36;;;;;;;8.70;7.87;;;;;;;1.16;100.00;98042.69;4938672;28;20298;-57
2022/01/29 08:28:05;;;;;;;8.70;7.80;;;;;;;1.24;100.00;98043.00;4942894;28;20326;-55
2022/01/29 08:30:34;;;;;;;9.53;8.33;;;;;;;1.17;100.00;98033.91;4943090;28;20691;-56
2022/01/29 08:33:03;;;;;;;10.63;9.60;;;;;;;1.11;100.00;98024.72;4940431;28;20222;-53
2022/01/29 08:35:31;;;;;;;10.17;8.20;;;;;;;1.16;100.00;98034.84;4942837;28;20210;-51
2022/01/29 08:37:59;;;;;;;9.20;8.23;;;;;;;1.24;100.00;98035.16;4941239;28;20578;-54
2022/01/29 08:40:28;;;;;;;9.73;7.83;;;;;;;1.24;100.00;98024.72;4939190;28;20213;-50
2022/01/29 08:42:56;;;;;;;10.03;8.83;;;;;;;1.31;100.00;98019.91;4942535;28;20703;-53
2022/01/29 08:45:24;;;;;;;9.20;8.30;;;;;;;1.25;100.00;98028.16;4939397;28;20338;-55
2022/01/29 08:47:54;;;;;;;9.20;8.07;;;;;;;1.25;100.00;98039.44;4941703;28;20921;-53
2022/01/29 08:50:22;;;;;;;11.10;9.30;;;;;;;1.28;100.00;98031.41;4941751;28;20317;-53
2022/01/29 08:52:52;;;;;;;10.40;9.40;;;;;;;1.37;100.00;98026.50;4898292;28;20458;-53
2022/01/29 08:55:22;;;;;;;9.40;7.53;;;;;;;1.36;100.00;98028.28;4932795;28;20689;-52
2022/01/29 08:57:50;;;;;;;10.50;8.93;;;;;;;1.31;100.00;98032.94;4931252;28;20303;-53
2022/01/29 09:00:19;;;;;;;10.33;8.47;;;;;;;1.46;100.00;98025.84;4924383;28;20518;-48
2022/01/29 09:02:48;;;;;;;9.43;8.63;;;;;;;1.44;100.00;98010.31;4930474;28;20215;-54
2022/01/29 09:05:18;;;;;;;11.50;8.63;;;;;;;1.52;100.00;98017.63;4922850;28;20497;-51
2022/01/29 09:07:47;;;;;;;10.63;8.03;;;;;;;1.38;100.00;97999.44;4926363;28;20224;-55
2022/01/29 09:10:16;;;;;;;9.00;8.07;;;;;;;1.44;100.00;98010.31;4904488;28;20438;-50
2022/01/29 09:12:44;;;;;;;9.37;8.07;;;;;;;1.55;100.00;98017.41;4931372;28;20297;-56
2022/01/29 09:15:12;;;;;;;9.20;8.30;;;;;;;1.55;100.00;98004.34;4893453;28;20403;-54
2022/01/29 09:17:41;;;;;;;8.50;7.57;;;;;;;1.73;100.00;97999.59;4931868;28;20326;-51
2022/01/29 09:20:10;;;;;;;11.87;8.17;;;;;;;1.71;100.00;98004.09;4917989;28;20516;-53
2022/01/29 09:22:40;;;;;;;10.57;9.57;;;;;;;1.75;100.00;98011.72;4932289;28;20262;-52
2022/01/29 09:25:09;;;;;;;10.50;8.30;;;;;;;1.58;100.00;97998.91;4873307;29;20235;-56
2022/01/29 09:27:37;;;;;;;9.47;7.63;;;;;;;1.73;100.00;98010.06;4910983;29;20212;-55
2022/01/29 09:30:07;;;;;;;8.73;7.90;;;;;;;1.81;100.00;98006.88;4894090;29;20679;-55
2022/01/29 09:32:36;;;;;;;10.87;7.80;;;;;;;1.73;100.00;98004.84;4913132;29;20474;-53
2022/01/29 09:35:05;;;;;;;9.73;7.97;;;;;;;1.70;100.00;98020.69;4897370;29;20853;-52
2022/01/29 09:37:33;;;;;;;9.43;7.87;;;;;;;1.74;100.00;98042.22;4914075;29;20626;-49
2022/01/29 09:40:03;;;;;;;7.83;7.03;;;;;;;1.72;100.00;98041.50;4868494;29;20719;-50
2022/01/29 09:42:31;;;;;;;8.13;7.33;;;;;;;1.76;100.00;98037.72;4910528;29;20225;-55
2022/01/29 09:45:00;;;;;;;9.37;7.60;;;;;;;1.71;100.00;98032.00;4894076;29;21278;-50
2022/01/29 09:47:29;;;;;;;7.90;7.10;;;;;;;1.75;100.00;98027.41;4912143;29;20295;-53
2022/01/29 09:49:58;;;;;;;7.07;6.37;;;;;;;1.56;100.00;98026.06;4909457;29;20938;-52
2022/01/29 09:52:26;;;;;;;8.00;7.23;;;;;;;1.84;100.00;98021.53;4911861;29;20218;-54
2022/01/29 09:54:59;;;;;;;9.17;8.27;;;;;;;1.72;100.00;98016.22;4911737;29;20211;-53
2022/01/29 09:57:28;;;;;;;9.00;7.70;;;;;;;1.85;100.00;98024.00;4870724;29;20212;-55
2022/01/29 09:59:56;;;;;;;7.00;6.37;;;;;;;1.71;100.00;98019.78;4908729;29;20232;-56
2022/01/29 10:02:25;;;;;;;6.80;6.13;;;;;;;1.90;100.00;98013.25;4899296;29;20303;-52
2022/01/29 10:04:55;;;;;;;7.80;6.83;;;;;;;1.90;100.00;98018.47;4909790;29;20325;-57
2022/01/29 10:07:25;;;;;;;8.63;6.53;;;;;;;1.86;100.00;98010.00;4899557;29;20361;-53
2022/01/29 10:09:54;;;;;;;8.90;7.13;;;;;;;1.78;100.00;98001.06;4912240;29;20501;-57
2022/01/29 10:12:26;;;;;;;7.27;6.47;;;;;;;1.83;100.00;98002.38;4870744;29;20600;-53
2022/01/29 10:14:58;;;;;;;8.23;6.33;;;;;;;1.79;100.00;97984.44;4911381;29;20243;-53
2022/01/29 10:17:40;;;;;;;7.03;6.20;;;;;;;1.78;100.00;97980.16;4896647;29;20243;-53
2022/01/29 10:20:11;;;;;;;7.73;7.00;;;;;;;1.87;100.00;97974.28;4911824;29;20514;-56
2022/01/29 10:22:39;;;;;;;8.47;6.77;;;;;;;1.71;100.00;97966.69;4908042;29;20298;-54
2022/01/29 10:25:12;;;;;;;6.60;5.97;;;;;;;1.76;100.00;97954.13;4929697;28;20277;-50
2022/01/29 10:27:40;;;;;;;6.67;5.87;;;;;;;1.70;100.00;97955.38;4885867;28;20230;-54
2022/01/29 10:30:12;;;;;;;6.80;6.07;;;;;;;1.79;100.00;97953.06;4930868;28;20297;-55
2022/01/29 10:32:41;;;;;;;6.70;6.00;;;;;;;1.85;100.00;97950.84;4911719;28;20243;-53
2022/01/29 10:35:12;;;;;;;6.90;6.30;;;;;;;1.77;100.00;97952.34;4931165;28;20208;-54
2022/01/29 10:37:41;;;;;;;7.80;6.37;;;;;;;1.84;100.00;97951.78;4913807;28;20239;-52
2022/01/29 10:40:22;;;;;;;8.47;6.10;;;;;;;1.93;100.00;97952.09;4933770;28;20234;-58
2022/01/29 10:42:51;;;;;;;6.60;6.00;;;;;;;1.91;100.00;97954.81;4893113;28;20234;-52
2022/01/29 10:45:32;;;;;;;6.60;5.10;;;;;;;2.14;100.00;97949.72;4933297;28;20365;-53
2022/01/29 10:48:03;;;;;;;5.90;5.20;;;;;;;2.09;100.00;97947.41;4915268;28;20938;-55
2022/01/29 10:50:32;;;;;;;6.17;5.57;;;;;;;2.13;100.00;97954.09;4931081;28;20203;-53
2022/01/29 10:53:26;;;;;;;9.43;6.60;;;;;;;2.13;100.00;97943.63;4922495;28;20227;-56
2022/01/29 10:56:01;;;;;;;7.07;6.37;;;;;;;2.19;100.00;97939.75;4871553;28;21085;-53
2022/01/29 10:58:29;;;;;;;6.10;5.43;;;;;;;2.20;100.00;97937.94;4908754;28;20220;-55
2022/01/29 11:01:16;;;;;;;7.00;5.83;;;;;;;2.22;100.00;97949.97;4847917;28;20226;-55
2022/01/29 11:03:45;;;;;;;7.80;6.47;;;;;;;2.47;100.00;97929.88;4914266;28;20798;-57
2022/01/29 11:06:16;;;;;;;7.67;6.10;;;;;;;2.39;100.00;97929.56;4909602;28;20317;-55
2022/01/29 11:08:45;;;;;;;6.00;5.17;;;;;;;2.66;100.00;97931.09;4906682;28;21057;-56
2022/01/29 11:11:14;;;;;;;9.10;7.27;;;;;;;2.47;100.00;97929.88;4924264;28;20946;-59
2022/01/29 11:14:02;;;;;;;8.07;6.57;;;;;;;2.41;100.00;97932.91;4929885;28;20227;-53
2022/01/29 11:16:31;;;;;;;7.37;6.67;;;;;;;2.43;100.00;97929.25;4886452;28;20223;-52
2022/01/29 11:19:00;;;;;;;7.83;6.70;;;;;;;2.42;100.00;97921.50;4932530;28;20207;-53
2022/01/29 11:21:29;;;;;;;7.50;6.80;;;;;;;2.33;100.00;97919.56;4913222;28;20215;-52
2022/01/29 11:23:58;;;;;;;7.10;6.40;;;;;;;2.48;100.00;97922.84;4928356;28;20329;-56
2022/01/29 11:26:26;;;;;;;8.47;7.70;;;;;;;2.45;100.00;97929.97;4912020;28;20995;-53
2022/01/29 11:29:23;;;;;;;10.00;7.50;;;;;;;2.58;100.00;97923.81;4929341;28;20290;-56
2022/01/29 11:32:35;;;;;;;7.57;6.83;;;;;;;2.58;100.00;97914.19;4886683;28;20428;-55
2022/01/29 11:35:14;;;;;;;7.77;6.90;;;;;;;2.49;100.00;97912.28;4931078;28;20207;-50
2022/01/29 11:37:44;;;;;;;7.03;6.33;;;;;;;2.63;100.00;97905.16;4912258;28;20722;-55
2022/01/29 11:40:15;;;;;;;7.10;6.40;;;;;;;2.49;100.00;97903.56;4894182;28;20223;-58
2022/01/29 11:43:03;;;;;;;7.40;6.70;;;;;;;2.43;100.00;97894.41;4923841;28;20221;-58
2022/01/29 11:45:44;;;;;;;6.60;6.03;;;;;;;2.44;100.00;97898.69;4921283;28;20815;-56
2022/01/29 11:48:52;;;;;;;7.30;6.50;;;;;;;2.46;100.00;97883.69;4888791;28;20219;-57